Time;durP1;ratioP1;P1;durP2;ratioP2;P2;SDS_P1;SDS_P2;PMS_P1;PMS_P2;Temp;Humidity;BMP_temperature;BMP_pressure;BME280_temperature;BME280_humidity;BME280_pressure;Samples;Min_cycle;Max_cycle;Signal;HPM_P1;HPM_P2
2023/08/28 00:00:12;;;;;;;7.03;6.32;;;;;;;28.67;53.84;99671.88;5034370;28;20057;-59
2023/08/28 00:02:42;;;;;;;7.25;6.55;;;;;;;28.66;53.73;99662.06;5037875;28;20057;-58
2023/08/28 00:05:10;;;;;;;7.68;6.40;;;;;;;28.66;53.76;99651.16;5037878;28;20066;-58
2023/08/28 00:07:37;;;;;;;7.35;6.65;;;;;;;28.66;53.78;99631.25;5037789;28;20056;-48
2023/08/28 00:10:05;;;;;;;6.90;6.20;;;;;;;28.67;54.04;99624.75;5038175;28;20107;-50
2023/08/28 00:12:36;;;;;;;7.45;6.72;;;;;;;28.66;54.25;99632.09;5038015;28;20049;-48
2023/08/28 00:15:04;;;;;;;8.15;6.22;;;;;;;28.67;54.20;99643.81;5051671;28;20076;-47
2023/08/28 00:17:31;;;;;;;7.50;6.55;;;;;;;28.68;53.88;99645.47;5038992;28;20487;-49
2023/08/28 00:19:59;;;;;;;7.95;7.15;;;;;;;28.68;54.01;99645.47;5038249;28;20045;-48
2023/08/28 00:22:26;;;;;;;6.55;5.93;;;;;;;28.69;53.99;99622.66;5047507;28;20048;-48
2023/08/28 00:24:53;;;;;;;7.28;6.30;;;;;;;28.70;54.13;99629.75;5042779;28;20049;-48
2023/08/28 00:27:21;;;;;;;7.18;6.47;;;;;;;28.69;54.38;99633.53;5052564;28;20052;-47
2023/08/28 00:29:48;;;;;;;9.25;6.88;;;;;;;28.68;53.99;99646.31;5042130;28;20053;-48
2023/08/28 00:32:16;;;;;;;7.20;6.50;;;;;;;28.70;54.11;99637.94;5045534;28;20049;-49
2023/08/28 00:34:43;;;;;;;7.38;5.75;;;;;;;28.70;54.41;99659.72;5049647;28;20053;-47
2023/08/28 00:37:14;;;;;;;7.18;6.10;;;;;;;28.70;53.98;99651.53;5040904;28;20057;-47
2023/08/28 00:39:41;;;;;;;7.43;6.63;;;;;;;28.70;54.26;99637.94;5049813;28;20041;-58
2023/08/28 00:42:09;;;;;;;7.03;6.00;;;;;;;28.69;54.17;99628.94;5047229;28;20053;-58
2023/08/28 00:44:36;;;;;;;7.72;6.43;;;;;;;28.70;54.42;99618.88;5040992;28;20056;-59
2023/08/28 00:47:07;;;;;;;6.55;5.90;;;;;;;28.70;54.32;99619.69;5035898;28;20060;-59
2023/08/28 00:49:35;;;;;;;7.00;6.15;;;;;;;28.70;54.38;99611.53;5043101;28;20049;-59
2023/08/28 00:52:03;;;;;;;7.53;6.63;;;;;;;28.70;54.63;99602.53;5045547;28;20049;-59
2023/08/28 00:54:32;;;;;;;7.47;6.68;;;;;;;28.71;54.39;99601.47;5035925;28;20435;-58
2023/08/28 00:57:01;;;;;;;7.20;6.50;;;;;;;28.71;54.36;99598.75;5040502;28;20108;-58
2023/08/28 00:59:30;;;;;;;6.97;6.28;;;;;;;28.71;54.73;99564.16;5047162;28;20056;-58
2023/08/28 01:01:58;;;;;;;6.88;6.18;;;;;;;28.71;54.32;99536.94;5046743;28;20061;-59
2023/08/28 01:04:25;;;;;;;6.70;6.00;;;;;;;28.71;54.27;99531.47;5039394;28;20089;-58
2023/08/28 01:06:59;;;;;;;7.80;6.65;;;;;;;28.71;54.40;99545.09;5050364;28;20385;-59
2023/08/28 01:09:35;;;;;;;6.65;6.05;;;;;;;28.71;54.39;99528.75;5046054;28;20049;-49
2023/08/28 01:12:20;;;;;;;7.95;6.70;;;;;;;28.72;54.34;99537.75;5049961;28;20395;-49
2023/08/28 01:15:06;;;;;;;7.50;6.30;;;;;;;28.72;54.86;99540.47;5040934;28;20072;-47
2023/08/28 01:17:35;;;;;;;7.32;6.40;;;;;;;28.72;54.90;99548.66;5044446;28;20053;-58
2023/08/28 01:20:04;;;;;;;8.52;7.40;;;;;;;28.71;54.75;99547.81;5036632;28;20049;-58
2023/08/28 01:22:39;;;;;;;8.13;6.20;;;;;;;28.72;54.79;99540.47;5039014;28;20053;-58
2023/08/28 01:25:17;;;;;;;6.88;6.15;;;;;;;28.73;54.73;99550.34;5047577;28;20523;-58
2023/08/28 01:27:45;;;;;;;7.10;6.40;;;;;;;28.73;54.68;99553.06;5035454;28;20054;-48
2023/08/28 01:30:16;;;;;;;8.02;6.90;;;;;;;28.73;54.64;99566.69;5050493;28;20506;-48
2023/08/28 01:32:45;;;;;;;6.65;6.00;;;;;;;28.73;55.02;99569.41;5042074;28;20052;-48
2023/08/28 01:35:15;;;;;;;7.65;6.82;;;;;;;28.73;55.03;99586.56;5044679;28;20055;-48
2023/08/28 01:38:17;;;;;;;6.95;5.97;;;;;;;28.73;55.07;99581.13;5049870;28;20060;-48
2023/08/28 01:41:09;;;;;;;8.00;6.38;;;;;;;28.73;54.90;99572.13;5043569;28;20052;-48
2023/08/28 01:43:42;;;;;;;8.52;7.03;;;;;;;28.73;54.88;99581.13;5039576;28;20057;-47
2023/08/28 01:46:10;;;;;;;7.95;6.75;;;;;;;28.73;54.82;99581.13;5036118;28;20065;-48
2023/08/28 01:48:47;;;;;;;7.88;6.50;;;;;;;28.75;54.92;99591.78;5035502;28;20135;-58
2023/08/28 01:51:14;;;;;;;8.60;6.65;;;;;;;28.74;54.64;99588.22;5034752;28;20522;-58
2023/08/28 01:53:42;;;;;;;7.75;6.93;;;;;;;28.75;54.80;99589.06;5035574;28;20041;-58
2023/08/28 01:56:09;;;;;;;7.32;6.35;;;;;;;28.74;54.57;99590.13;5035785;28;20403;-58
2023/08/28 01:58:46;;;;;;;7.95;6.32;;;;;;;28.74;54.97;99599.13;5034752;28;20053;-49
2023/08/28 02:01:13;;;;;;;7.93;7.13;;;;;;;28.74;54.99;99617.38;5034091;28;20057;-47
2023/08/28 02:03:41;;;;;;;8.10;7.05;;;;;;;28.75;54.82;99616.31;5034250;28;20068;-47
2023/08/28 02:06:09;;;;;;;7.65;6.75;;;;;;;28.75;54.69;99608.13;5035718;28;20052;-48
2023/08/28 02:08:37;;;;;;;8.30;7.35;;;;;;;28.77;54.67;99592.41;5036515;28;20495;-49
2023/08/28 02:11:05;;;;;;;7.25;6.55;;;;;;;28.77;54.61;99589.69;5034149;28;20391;-47
2023/08/28 02:13:33;;;;;;;10.50;6.75;;;;;;;28.78;54.99;99594.91;5034336;28;20068;-49
2023/08/28 02:16:02;;;;;;;7.68;6.60;;;;;;;28.78;55.04;99594.91;5034624;28;20064;-48
2023/08/28 02:18:30;;;;;;;8.98;6.70;;;;;;;28.79;54.83;99593.00;5036344;28;20065;-59
2023/08/28 02:20:59;;;;;;;7.13;6.43;;;;;;;28.79;55.25;99593.00;5034063;28;20041;-59
2023/08/28 02:23:27;;;;;;;7.38;6.57;;;;;;;28.79;55.22;99593.00;5035604;28;20041;-59
2023/08/28 02:25:55;;;;;;;8.52;7.65;;;;;;;28.78;55.27;99562.22;5034816;28;20049;-59
2023/08/28 02:28:22;;;;;;;11.32;7.30;;;;;;;28.78;55.80;99564.09;5045284;28;20045;-59
2023/08/28 02:30:49;;;;;;;9.43;8.20;;;;;;;28.79;55.53;99590.28;5038340;28;20415;-59
2023/08/28 02:33:17;;;;;;;9.25;8.23;;;;;;;28.77;55.86;99606.84;5050600;28;20503;-59
2023/08/28 02:35:45;;;;;;;10.35;8.68;;;;;;;28.77;55.69;99603.31;5039971;28;20053;-59
2023/08/28 02:38:12;;;;;;;9.25;8.32;;;;;;;28.77;56.00;99598.69;5043668;28;20046;-48
2023/08/28 02:40:40;;;;;;;9.13;7.75;;;;;;;28.77;56.02;99576.91;5049067;28;20407;-50
2023/08/28 02:43:09;;;;;;;9.18;7.72;;;;;;;28.77;55.66;99581.50;5037033;28;20053;-47
2023/08/28 02:45:39;;;;;;;9.15;8.23;;;;;;;28.76;55.80;99580.69;5045405;28;20049;-49
2023/08/28 02:48:11;;;;;;;9.63;8.05;;;;;;;28.76;55.80;99575.25;5034025;28;20045;-49
2023/08/28 02:50:39;;;;;;;;;;;;;;;28.74;55.80;99571.06;5034028;28;20041;-49
2023/08/28 02:53:06;;;;;;;11.40;8.45;;;;;;;28.75;55.80;99570.81;5047778;28;19921;-48
2023/08/28 02:55:39;;;;;;;8.35;7.47;;;;;;;28.76;56.19;99582.56;5033963;28;20060;-48
2023/08/28 02:58:09;;;;;;;9.50;8.43;;;;;;;28.75;55.93;99581.72;5045734;28;20060;-59
2023/08/28 03:00:37;;;;;;;10.23;9.07;;;;;;;28.74;56.08;99593.69;5036561;28;20064;-59
2023/08/28 03:03:05;;;;;;;11.55;8.98;;;;;;;28.75;56.16;99602.69;5047395;28;20053;-59
2023/08/28 03:05:34;;;;;;;10.73;9.65;;;;;;;28.74;56.17;99607.28;5041718;28;20053;-59
2023/08/28 03:08:01;;;;;;;9.88;8.98;;;;;;;28.72;56.10;99620.28;5040616;28;20052;-58
2023/08/28 03:10:31;;;;;;;13.00;10.07;;;;;;;28.72;55.68;99605.84;5048260;28;20041;-58
2023/08/28 03:12:58;;;;;;;10.80;9.80;;;;;;;28.72;55.63;99608.56;5039732;28;20052;-59
2023/08/28 03:15:26;;;;;;;12.48;11.23;;;;;;;28.71;55.77;99598.75;5044023;28;20045;-59
2023/08/28 03:17:54;;;;;;;12.35;11.13;;;;;;;28.70;55.56;99588.91;5032302;28;20053;-48
2023/08/28 03:20:21;;;;;;;11.55;10.55;;;;;;;28.69;55.49;99587.25;5042899;28;20048;-48
2023/08/28 03:22:48;;;;;;;11.60;10.48;;;;;;;28.69;55.68;99581.81;5038330;28;20053;-48
2023/08/28 03:25:16;;;;;;;11.80;10.75;;;;;;;28.69;55.32;99584.53;5044133;28;20046;-48
2023/08/28 03:27:43;;;;;;;12.70;11.50;;;;;;;28.69;55.58;99584.53;5034629;28;20080;-48
2023/08/28 03:30:14;;;;;;;11.65;10.65;;;;;;;28.69;55.11;99557.28;5048000;28;20049;-48
2023/08/28 03:32:42;;;;;;;11.48;10.32;;;;;;;28.67;55.14;99540.31;5040019;28;20411;-49
2023/08/28 03:35:09;;;;;;;12.93;11.63;;;;;;;28.66;55.41;99538.66;5042003;28;20076;-48
2023/08/28 03:37:37;;;;;;;13.18;11.88;;;;;;;28.66;55.22;99536.78;5046587;28;20053;-58
2023/08/28 03:40:05;;;;;;;13.27;12.07;;;;;;;28.67;55.35;99508.47;5037925;28;20362;-59
2023/08/28 03:42:32;;;;;;;13.32;11.65;;;;;;;28.65;55.28;99477.94;5047359;28;20045;-59
2023/08/28 03:45:00;;;;;;;12.55;11.27;;;;;;;28.66;54.87;99474.16;5043539;28;20040;-58
2023/08/28 03:47:27;;;;;;;11.60;10.60;;;;;;;28.64;54.30;99473.53;5039354;28;20045;-50
2023/08/28 03:49:55;;;;;;;11.35;10.25;;;;;;;28.63;54.42;99463.69;5048549;28;20041;-48
2023/08/28 03:52:22;;;;;;;10.30;9.30;;;;;;;28.61;53.77;99446.78;5038569;28;20053;-48
2023/08/28 03:54:49;;;;;;;10.70;9.55;;;;;;;28.59;53.76;99432.53;5043156;28;20056;-48
2023/08/28 03:57:17;;;;;;;9.55;8.45;;;;;;;28.58;53.42;99409.09;5047389;28;20044;-50
2023/08/28 03:59:45;;;;;;;9.65;8.65;;;;;;;28.56;53.10;99422.09;5036379;28;20053;-47
2023/08/28 04:02:12;;;;;;;8.68;7.80;;;;;;;28.55;53.46;99410.38;5045376;28;20049;-49
2023/08/28 04:04:39;;;;;;;8.73;7.28;;;;;;;28.54;53.01;99416.06;5041854;28;20053;-49
2023/08/28 04:07:07;;;;;;;8.20;7.40;;;;;;;28.52;52.48;99397.22;5039243;28;20041;-50
2023/08/28 04:09:36;;;;;;;7.88;6.75;;;;;;;28.51;52.16;99392.00;5047540;28;20053;-49
2023/08/28 04:12:04;;;;;;;6.82;5.35;;;;;;;28.49;52.23;99389.50;5039935;28;20491;-48
2023/08/28 04:14:32;;;;;;;5.43;4.68;;;;;;;28.48;52.10;99338.84;5042103;28;20045;-48
2023/08/28 04:16:59;;;;;;;7.05;5.05;;;;;;;28.48;51.85;99344.28;5031795;28;20526;-49
2023/08/28 04:19:27;;;;;;;5.45;4.85;;;;;;;28.47;51.75;99380.72;5031569;28;20061;-59
2023/08/28 04:21:54;;;;;;;7.78;4.82;;;;;;;28.48;51.16;99398.75;5032593;28;20416;-59
2023/08/28 04:24:22;;;;;;;5.50;4.30;;;;;;;28.48;51.42;99392.44;5031817;28;20526;-59
2023/08/28 04:26:50;;;;;;;4.13;3.53;;;;;;;28.48;51.48;99393.31;5032354;28;20053;-59
2023/08/28 04:29:17;;;;;;;5.20;4.35;;;;;;;28.49;50.98;99394.13;5047344;28;20400;-48
2023/08/28 04:31:45;;;;;;;4.43;3.60;;;;;;;28.50;50.99;99402.06;5038247;28;20060;-48
2023/08/28 04:34:14;;;;;;;4.82;4.05;;;;;;;28.49;50.95;99375.91;5040375;28;20076;-47
2023/08/28 04:36:42;;;;;;;5.55;3.80;;;;;;;28.48;50.49;99378.84;5041643;28;20411;-48
2023/08/28 04:39:09;;;;;;;3.92;2.97;;;;;;;28.46;50.01;99384.50;5036709;28;20049;-59
2023/08/28 04:41:36;;;;;;;4.45;3.13;;;;;;;28.45;50.12;99392.91;5044377;28;20052;-59
2023/08/28 04:44:04;;;;;;;3.95;2.38;;;;;;;28.43;49.51;99393.13;5041938;28;20056;-59
2023/08/28 04:46:31;;;;;;;4.70;2.30;;;;;;;28.42;49.03;99404.25;5037280;28;20484;-59
2023/08/28 04:48:59;;;;;;;5.13;3.15;;;;;;;28.41;48.93;99417.03;5033346;28;20065;-58
2023/08/28 04:51:26;;;;;;;2.85;1.98;;;;;;;28.40;49.34;99409.94;5037525;28;20048;-58
2023/08/28 04:53:53;;;;;;;4.10;2.60;;;;;;;28.40;48.76;99411.78;5037071;28;20131;-58
2023/08/28 04:56:21;;;;;;;3.63;2.10;;;;;;;28.38;49.02;99398.44;5036931;28;20056;-59
2023/08/28 04:58:48;;;;;;;3.40;2.03;;;;;;;28.38;48.97;99409.31;5052084;28;20046;-59
2023/08/28 05:01:16;;;;;;;3.58;2.20;;;;;;;28.38;49.08;99392.97;5041885;28;20045;-59
2023/08/28 05:03:43;;;;;;;4.35;2.00;;;;;;;28.38;48.99;99373.94;5044643;28;20049;-59
2023/08/28 05:06:11;;;;;;;4.28;2.70;;;;;;;28.38;49.16;99389.44;5050480;28;20067;-59
2023/08/28 05:08:38;;;;;;;4.57;2.83;;;;;;;28.38;48.78;99381.25;5039126;28;20419;-48
2023/08/28 05:11:05;;;;;;;4.22;2.50;;;;;;;28.36;49.02;99386.94;5049113;28;20049;-47
2023/08/28 05:13:33;;;;;;;3.55;2.17;;;;;;;28.35;49.03;99388.78;5046614;28;20051;-48
2023/08/28 05:16:02;;;;;;;5.00;2.08;;;;;;;28.34;48.55;99386.28;5039920;28;20057;-48
2023/08/28 05:18:30;;;;;;;4.80;2.38;;;;;;;28.34;48.97;99395.28;5034200;28;20053;-48
2023/08/28 05:20:57;;;;;;;3.78;1.80;;;;;;;28.33;48.62;99400.97;5036980;28;20037;-49
2023/08/28 05:23:27;;;;;;;4.07;2.60;;;;;;;28.34;48.37;99408.91;5036460;28;20045;-48
2023/08/28 05:25:55;;;;;;;4.50;2.28;;;;;;;28.33;48.30;99420.84;5034689;28;20049;-48
2023/08/28 05:28:23;;;;;;;3.88;1.67;;;;;;;28.33;48.63;99415.41;5039949;28;20041;-58
2023/08/28 05:30:50;;;;;;;3.88;1.85;;;;;;;28.33;48.63;99418.13;5048660;28;20048;-58
2023/08/28 05:33:18;;;;;;;4.30;2.05;;;;;;;28.34;48.25;99418.97;5046264;28;20056;-58
2023/08/28 05:35:45;;;;;;;3.22;2.00;;;;;;;28.34;48.69;99421.69;5038949;28;20053;-58
2023/08/28 05:38:13;;;;;;;4.95;2.10;;;;;;;28.35;48.23;99417.88;5049894;28;20062;-48
2023/08/28 05:40:41;;;;;;;4.63;1.92;;;;;;;28.36;48.34;99419.63;5041581;28;20533;-48
2023/08/28 05:43:08;;;;;;;3.72;1.75;;;;;;;28.34;48.68;99430.66;5044199;28;20064;-49
2023/08/28 05:45:37;;;;;;;4.43;2.42;;;;;;;28.34;48.59;99421.69;5048957;28;20053;-48
2023/08/28 05:48:04;;;;;;;3.63;1.88;;;;;;;28.34;48.36;99421.69;5039924;28;20057;-49
2023/08/28 05:50:32;;;;;;;4.13;2.10;;;;;;;28.33;47.97;99422.75;5045912;28;20053;-47
2023/08/28 05:53:00;;;;;;;4.13;1.90;;;;;;;28.32;48.20;99415.66;5039114;28;20049;-48
2023/08/28 05:55:28;;;;;;;3.75;2.33;;;;;;;28.32;48.19;99410.19;5049932;28;20403;-49
2023/08/28 05:57:56;;;;;;;4.05;1.77;;;;;;;28.29;47.92;99411.47;5038783;28;20411;-58
2023/08/28 06:00:25;;;;;;;4.28;2.05;;;;;;;28.30;47.74;99417.75;5045197;28;20408;-58
2023/08/28 06:02:53;;;;;;;4.07;1.80;;;;;;;28.29;47.46;99416.09;5045065;28;20401;-59
2023/08/28 06:05:21;;;;;;;2.38;1.70;;;;;;;28.25;47.33;99412.97;5037868;28;20054;-59
2023/08/28 06:07:49;;;;;;;4.57;2.38;;;;;;;28.26;47.18;99427.41;5049958;28;20052;-58
2023/08/28 06:10:19;;;;;;;6.38;1.67;;;;;;;28.26;47.29;99424.69;5042194;28;20049;-58
2023/08/28 06:12:47;;;;;;;4.90;1.38;;;;;;;28.26;47.24;99419.25;5041382;28;20049;-58
2023/08/28 06:15:25;;;;;;;4.22;1.55;;;;;;;28.25;47.02;99418.41;5035283;28;20053;-59
2023/08/28 06:17:53;;;;;;;3.92;1.80;;;;;;;28.24;47.36;99413.22;5036016;28;20045;-48
2023/08/28 06:20:22;;;;;;;2.80;1.25;;;;;;;28.24;47.19;99411.31;5035648;28;20400;-51
2023/08/28 06:22:49;;;;;;;3.17;1.83;;;;;;;28.23;46.98;99411.53;5036102;28;20050;-51
2023/08/28 06:25:17;;;;;;;3.83;1.52;;;;;;;28.24;46.80;99405.06;5035073;28;20100;-49
2023/08/28 06:27:44;;;;;;;3.65;1.50;;;;;;;28.24;47.24;99418.66;5035679;28;20544;-50
2023/08/28 06:30:12;;;;;;;4.45;2.00;;;;;;;28.25;47.23;99439.38;5033176;28;20054;-49
2023/08/28 06:32:39;;;;;;;4.65;2.10;;;;;;;28.26;47.26;99417.34;5034379;28;20380;-47
2023/08/28 06:35:07;;;;;;;3.60;1.83;;;;;;;28.26;46.69;99425.53;5034923;28;20048;-49
2023/08/28 06:37:35;;;;;;;5.53;1.80;;;;;;;28.27;46.86;99434.50;5035270;28;20480;-58
2023/08/28 06:40:03;;;;;;;4.45;1.85;;;;;;;28.29;46.89;99443.31;5034816;28;20057;-59
2023/08/28 06:42:31;;;;;;;7.20;1.88;;;;;;;28.24;47.01;99441.25;5035184;28;20041;-59
2023/08/28 06:44:58;;;;;;;2.30;1.27;;;;;;;28.10;46.38;99451.41;5035035;28;20048;-63
2023/08/28 06:47:27;;;;;;;4.60;1.90;;;;;;;27.92;46.88;99456.81;5035428;28;20057;-58
2023/08/28 06:49:56;;;;;;;4.40;1.80;;;;;;;27.74;46.91;99452.13;5034855;28;20053;-58
2023/08/28 06:52:23;;;;;;;5.40;1.80;;;;;;;27.66;47.45;99459.69;5034906;28;20400;-58
2023/08/28 06:54:50;;;;;;;4.60;1.98;;;;;;;27.50;47.36;99461.88;5034664;28;20415;-58
2023/08/28 06:57:19;;;;;;;4.53;2.10;;;;;;;27.28;47.92;99452.41;5035010;28;20061;-58
2023/08/28 06:59:48;;;;;;;3.38;2.00;;;;;;;27.11;48.56;99455.63;5032992;28;20049;-58
2023/08/28 07:02:16;;;;;;;4.25;2.30;;;;;;;27.06;48.83;99450.00;5034420;28;20396;-57
2023/08/28 07:04:43;;;;;;;3.50;1.85;;;;;;;26.92;49.16;99452.97;5039449;28;20049;-58
2023/08/28 07:07:15;;;;;;;4.40;1.85;;;;;;;26.88;49.72;99452.56;5034513;28;20590;-58
2023/08/28 07:09:42;;;;;;;3.95;2.10;;;;;;;26.83;49.38;99449.66;5033942;28;20049;-60
2023/08/28 07:12:09;;;;;;;5.32;2.00;;;;;;;26.79;50.07;99451.16;5043527;28;20052;-60
2023/08/28 07:14:37;;;;;;;4.85;1.92;;;;;;;26.73;50.00;99443.84;5035704;28;20068;-59
2023/08/28 07:17:04;;;;;;;3.08;1.90;;;;;;;26.76;50.26;99448.84;5041265;28;20503;-58
2023/08/28 07:19:32;;;;;;;3.85;1.83;;;;;;;26.86;50.10;99454.69;5041910;28;20049;-58
2023/08/28 07:22:00;;;;;;;4.85;1.50;;;;;;;26.98;49.98;99449.38;5048620;28;20037;-58
2023/08/28 07:24:28;;;;;;;5.03;1.77;;;;;;;27.07;49.64;99432.63;5037747;28;20049;-58
2023/08/28 07:26:55;;;;;;;4.57;1.83;;;;;;;27.16;49.44;99441.41;5045041;28;20514;-58
2023/08/28 07:29:22;;;;;;;4.28;2.08;;;;;;;27.22;49.43;99442.41;5044466;28;20045;-48
2023/08/28 07:31:50;;;;;;;4.20;1.50;;;;;;;27.28;49.15;99428.78;5037707;28;20045;-48
2023/08/28 07:34:17;;;;;;;4.93;2.35;;;;;;;27.35;48.92;99426.88;5033436;28;20045;-49
2023/08/28 07:36:44;;;;;;;5.47;1.67;;;;;;;27.40;48.91;99425.38;5032794;28;20045;-50
2023/08/28 07:39:12;;;;;;;4.50;1.70;;;;;;;27.43;48.89;99414.91;5033793;28;20049;-48
2023/08/28 07:41:39;;;;;;;4.22;1.88;;;;;;;27.48;48.80;99409.63;5033493;28;20053;-48
2023/08/28 07:44:06;;;;;;;5.18;1.90;;;;;;;27.53;48.71;99408.97;5035489;28;20049;-51
2023/08/28 07:46:34;;;;;;;7.00;2.22;;;;;;;27.58;48.70;99409.13;5033880;28;20061;-48
2023/08/28 07:49:03;;;;;;;4.03;1.90;;;;;;;27.61;48.38;99408.69;5035164;28;20056;-49
2023/08/28 07:51:30;;;;;;;3.00;1.40;;;;;;;27.67;48.52;99401.53;5037549;28;20053;-47
2023/08/28 07:53:57;;;;;;;5.03;1.98;;;;;;;27.69;48.43;99386.69;5033544;28;20053;-48
2023/08/28 07:56:24;;;;;;;6.47;1.80;;;;;;;27.74;48.51;99386.88;5041765;28;20052;-49
2023/08/28 07:58:52;;;;;;;7.07;1.80;;;;;;;27.76;48.28;99384.78;5041400;28;20049;-47
2023/08/28 08:01:19;;;;;;;3.67;1.58;;;;;;;27.80;48.20;99379.72;5044135;28;20042;-48
2023/08/28 08:03:47;;;;;;;5.40;1.77;;;;;;;27.84;47.75;99364.63;5047967;28;20041;-48
2023/08/28 08:06:14;;;;;;;4.75;1.63;;;;;;;27.88;47.85;99351.41;5040419;28;20400;-48
2023/08/28 08:08:42;;;;;;;6.93;2.17;;;;;;;27.93;47.62;99335.25;5041299;28;20052;-49
2023/08/28 08:11:10;;;;;;;3.35;1.40;;;;;;;27.95;47.76;99328.50;5046555;28;20053;-48
2023/08/28 08:13:38;;;;;;;4.22;2.22;;;;;;;27.98;47.45;99316.34;5032744;28;20050;-49
2023/08/28 08:16:05;;;;;;;5.57;1.90;;;;;;;27.99;47.22;99312.56;5032759;28;20511;-48
2023/08/28 08:18:32;;;;;;;3.45;2.05;;;;;;;28.00;46.91;99309.66;5032789;28;20045;-59
2023/08/28 08:21:00;;;;;;;5.35;2.08;;;;;;;28.02;47.06;99304.78;5032718;28;20049;-57
2023/08/28 08:23:27;;;;;;;5.93;1.83;;;;;;;28.04;46.86;99294.53;5039703;28;20055;-59
2023/08/28 08:25:55;;;;;;;4.30;1.98;;;;;;;28.04;47.11;99297.25;5048519;28;20525;-59
2023/08/28 08:28:22;;;;;;;4.32;1.73;;;;;;;28.06;46.79;99286.97;5036937;28;20045;-55
2023/08/28 08:30:50;;;;;;;10.55;1.83;;;;;;;28.06;46.59;99289.69;5036869;28;20053;-55
2023/08/28 08:33:17;;;;;;;5.43;1.95;;;;;;;28.07;46.01;99274.19;5036238;28;20037;-56
2023/08/28 08:35:45;;;;;;;4.07;1.95;;;;;;;28.08;46.20;99282.13;5036306;28;20064;-54
2023/08/28 08:38:13;;;;;;;7.00;1.90;;;;;;;28.09;46.46;99281.06;5036232;28;20053;-55
2023/08/28 08:40:40;;;;;;;4.22;1.60;;;;;;;28.10;46.08;99271.84;5036294;28;20053;-56
2023/08/28 08:43:08;;;;;;;5.63;2.05;;;;;;;28.11;46.19;99280.84;5035965;28;20049;-55
2023/08/28 08:45:44;;;;;;;4.00;1.90;;;;;;;28.12;46.29;99262.66;5036085;28;20049;-54
2023/08/28 08:48:16;;;;;;;3.90;1.90;;;;;;;28.13;46.43;99256.97;5036229;28;20412;-59
2023/08/28 08:50:46;;;;;;;3.63;1.70;;;;;;;28.13;46.25;99267.84;5035854;28;20076;-59
2023/08/28 08:53:31;;;;;;;3.50;1.45;;;;;;;28.15;46.29;99257.56;5035870;28;20045;-59
2023/08/28 08:56:03;;;;;;;5.68;1.83;;;;;;;28.16;46.62;99272.03;5035978;28;20407;-59
2023/08/28 08:58:31;;;;;;;3.92;1.70;;;;;;;28.16;46.60;99266.56;5035834;28;20056;-59
2023/08/28 09:00:59;;;;;;;6.03;1.83;;;;;;;28.17;46.56;99266.34;5035706;28;20053;-59
2023/08/28 09:03:29;;;;;;;4.55;1.40;;;;;;;28.18;46.00;99270.72;5035810;28;20045;-58
2023/08/28 09:05:59;;;;;;;4.30;1.42;;;;;;;28.19;46.38;99266.09;5035779;28;20053;-59
2023/08/28 09:08:28;;;;;;;3.05;1.40;;;;;;;28.20;46.39;99270.50;5037591;28;20057;-60
2023/08/28 09:11:04;;;;;;;5.00;1.42;;;;;;;28.20;46.41;99263.16;5049301;28;20419;-59
2023/08/28 09:13:32;;;;;;;2.85;1.35;;;;;;;28.21;46.32;99264.81;5046453;28;20041;-59
2023/08/28 09:15:59;;;;;;;4.80;1.80;;;;;;;28.23;46.35;99267.31;5040812;28;20049;-59
2023/08/28 09:18:26;;;;;;;2.83;1.45;;;;;;;28.21;46.13;99275.69;5035992;28;20046;-59
2023/08/28 09:21:11;;;;;;;3.25;1.52;;;;;;;28.22;45.96;99271.09;5036625;28;20041;-59
2023/08/28 09:23:43;;;;;;;4.50;1.30;;;;;;;28.24;45.73;99266.25;5036041;28;20054;-59
2023/08/28 09:26:18;;;;;;;3.90;1.50;;;;;;;28.23;45.87;99256.41;5038795;28;20052;-59
2023/08/28 09:29:12;;;;;;;4.18;1.55;;;;;;;28.23;45.77;99259.13;5048159;28;20056;-54
2023/08/28 09:31:42;;;;;;;3.55;1.35;;;;;;;28.24;45.35;99255.38;5049729;28;20068;-54
2023/08/28 09:34:10;;;;;;;5.35;1.45;;;;;;;28.25;45.46;99267.91;5038746;28;20048;-55
2023/08/28 09:36:40;;;;;;;3.05;1.20;;;;;;;28.25;45.27;99265.19;5052406;28;20057;-55
2023/08/28 09:39:12;;;;;;;2.95;1.27;;;;;;;28.26;44.95;99267.69;5043657;28;20041;-54
2023/08/28 09:41:40;;;;;;;3.65;1.70;;;;;;;28.26;45.14;99269.56;5050726;28;20048;-55
2023/08/28 09:44:09;;;;;;;5.22;1.90;;;;;;;28.27;45.14;99263.06;5042330;28;20046;-55
2023/08/28 09:46:37;;;;;;;4.57;1.45;;;;;;;28.25;44.42;99255.13;5043292;28;20045;-55
2023/08/28 09:49:06;;;;;;;2.83;1.33;;;;;;;28.26;44.19;99259.53;5042660;28;20045;-55
2023/08/28 09:51:49;;;;;;;4.55;1.50;;;;;;;28.26;44.60;99248.63;5050482;28;20049;-58
2023/08/28 09:54:17;;;;;;;3.47;1.20;;;;;;;28.27;44.46;99246.75;5041680;28;20041;-59
2023/08/28 09:56:45;;;;;;;3.67;1.10;;;;;;;28.28;44.20;99251.16;5043962;28;20388;-59
2023/08/28 09:59:14;;;;;;;3.42;1.15;;;;;;;28.28;44.58;99248.41;5035180;28;20049;-59
2023/08/28 10:01:42;;;;;;;3.85;1.27;;;;;;;28.27;44.08;99250.28;5035047;28;20440;-59
2023/08/28 10:04:12;;;;;;;2.90;0.95;;;;;;;28.28;44.18;99257.41;5034033;28;20045;-59
2023/08/28 10:06:53;;;;;;;3.58;1.15;;;;;;;28.31;44.34;99258.81;5045717;28;20059;-59
2023/08/28 10:09:22;;;;;;;2.70;1.30;;;;;;;28.31;43.91;99245.22;5037628;28;20046;-59
2023/08/28 10:11:50;;;;;;;3.80;1.30;;;;;;;28.30;43.83;99232.69;5035518;28;20050;-59
2023/08/28 10:14:20;;;;;;;2.60;1.38;;;;;;;28.30;44.17;99230.78;5034860;28;20049;-59
2023/08/28 10:16:59;;;;;;;4.13;1.45;;;;;;;28.31;43.72;99223.44;5034782;28;20411;-59
2023/08/28 10:19:51;;;;;;;3.42;1.27;;;;;;;28.31;44.08;99212.56;5045320;28;20052;-54
2023/08/28 10:22:19;;;;;;;2.90;1.52;;;;;;;28.32;43.98;99211.53;5035152;28;20480;-55
2023/08/28 10:24:47;;;;;;;4.45;1.70;;;;;;;28.33;43.53;99202.28;5034782;28;20545;-55
2023/08/28 10:27:16;;;;;;;3.75;1.45;;;;;;;28.33;43.46;99199.56;5035359;28;20049;-55
2023/08/28 10:29:46;;;;;;;4.75;1.60;;;;;;;28.34;43.57;99201.22;5046942;28;20415;-59
2023/08/28 10:32:14;;;;;;;3.67;1.38;;;;;;;28.34;43.56;99199.31;5034797;28;20053;-59
2023/08/28 10:34:42;;;;;;;3.85;1.45;;;;;;;28.34;43.55;99187.59;5034538;28;20053;-59
2023/08/28 10:37:10;;;;;;;3.75;1.60;;;;;;;28.34;43.37;99185.72;5034630;28;20058;-60
2023/08/28 10:39:57;;;;;;;3.33;1.45;;;;;;;28.35;43.43;99183.81;5034520;28;20060;-59
2023/08/28 10:42:26;;;;;;;3.05;1.38;;;;;;;28.35;43.63;99179.19;5034870;28;20057;-59
2023/08/28 10:44:55;;;;;;;3.10;1.45;;;;;;;28.35;43.25;99173.75;5034757;28;20052;-59
2023/08/28 10:47:24;;;;;;;6.30;1.95;;;;;;;28.34;42.59;99176.72;5035218;28;20042;-57
2023/08/28 10:49:55;;;;;;;3.92;1.30;;;;;;;28.34;42.05;99172.09;5034613;28;20052;-55
2023/08/28 10:52:23;;;;;;;4.05;1.40;;;;;;;28.33;42.04;99173.19;5046085;28;20045;-54
2023/08/28 10:54:55;;;;;;;3.30;1.40;;;;;;;28.33;42.43;99188.69;5034505;28;20135;-55
2023/08/28 10:57:27;;;;;;;7.03;1.20;;;;;;;28.33;42.13;99191.41;5035131;28;20041;-57
2023/08/28 10:59:55;;;;;;;;;;;;;;;28.30;41.97;99206.28;5046273;28;20053;-59
2023/08/28 11:02:22;;;;;;;4.88;1.40;;;;;;;28.32;42.37;99214.25;5037693;28;19921;-59
2023/08/28 11:04:50;;;;;;;2.83;1.33;;;;;;;28.32;42.90;99214.25;5048038;28;20048;-58
2023/08/28 11:07:21;;;;;;;3.78;1.60;;;;;;;28.33;42.73;99232.22;5033802;28;20053;-58
2023/08/28 11:09:49;;;;;;;3.13;1.63;;;;;;;28.32;42.81;99231.41;5033550;28;20053;-58
2023/08/28 11:12:20;;;;;;;2.60;1.38;;;;;;;28.33;43.05;99233.06;5033511;28;20045;-58
2023/08/28 11:14:54;;;;;;;2.67;1.10;;;;;;;28.33;42.64;99226.78;5033475;28;20057;-58
2023/08/28 11:17:23;;;;;;;3.38;1.33;;;;;;;28.35;43.12;99232.81;5033590;28;20488;-56
2023/08/28 11:19:52;;;;;;;3.47;1.58;;;;;;;28.34;44.72;99242.03;5033584;28;20076;-54
2023/08/28 11:22:39;;;;;;;3.78;1.48;;;;;;;28.33;45.07;99234.94;5033729;28;20499;-55
2023/08/28 11:25:11;;;;;;;3.22;1.27;;;;;;;28.32;45.81;99241.47;5033708;28;20045;-55
2023/08/28 11:27:43;;;;;;;3.55;1.75;;;;;;;28.33;46.19;99243.13;5033622;28;20052;-58
2023/08/28 11:30:12;;;;;;;3.88;1.50;;;;;;;28.32;46.05;99239.56;5033804;28;20057;-58
2023/08/28 11:32:42;;;;;;;5.72;1.88;;;;;;;28.32;46.21;99236.03;5033402;28;20052;-58
2023/08/28 11:35:13;;;;;;;4.97;2.40;;;;;;;28.32;45.93;99230.56;5033397;28;20042;-59
2023/08/28 11:37:42;;;;;;;6.03;2.00;;;;;;;28.32;45.70;99211.53;5033067;28;20061;-58
2023/08/28 11:40:10;;;;;;;4.25;2.05;;;;;;;28.33;44.99;99213.19;5032062;28;20419;-58